Time;durP1;ratioP1;P1;durP2;ratioP2;P2;SDS_P1;SDS_P2;PMS_P1;PMS_P2;Temp;Humidity;BMP_temperature;BMP_pressure;BME280_temperature;BME280_humidity;BME280_pressure;Samples;Min_cycle;Max_cycle;Signal;HPM_P1;HPM_P2
2022/07/11 00:02:02;;;;;;;2.45;1.80;;;;;;;26.64;44.15;100393.16;1758900;81;21070;-82
2022/07/11 00:04:29;;;;;;;1.70;1.60;;;;;;;26.64;44.15;100394.55;1758889;80;21014;-83
2022/07/11 00:06:57;;;;;;;2.72;1.82;;;;;;;26.64;44.15;100404.32;1758709;80;21018;-83
2022/07/11 00:09:23;;;;;;;2.17;1.85;;;;;;;26.64;44.16;100393.16;1758589;80;21046;-82
2022/07/11 00:11:50;;;;;;;3.33;1.87;;;;;;;26.63;44.17;100392.34;1758819;80;21150;-83
2022/07/11 00:14:16;;;;;;;2.08;1.80;;;;;;;26.63;44.17;100391.53;1728942;81;21105;-83
2022/07/11 00:16:43;;;;;;;3.47;1.87;;;;;;;26.63;44.19;100385.95;1758296;80;22128;-83
2022/07/11 00:19:10;;;;;;;2.92;1.62;;;;;;;26.63;44.17;100391.53;1758568;80;21127;-84
2022/07/11 00:21:36;;;;;;;2.15;1.82;;;;;;;26.64;44.19;100390.37;1758830;80;21065;-84
2022/07/11 00:24:04;;;;;;;2.67;1.77;;;;;;;26.62;44.20;100388.52;1758560;81;21068;-83
2022/07/11 00:26:30;;;;;;;2.30;1.80;;;;;;;26.62;44.20;100392.13;1758685;80;21031;-84
2022/07/11 00:28:57;;;;;;;2.83;1.62;;;;;;;26.62;44.21;100391.31;1728991;81;21504;-82
2022/07/11 00:31:23;;;;;;;2.50;1.77;;;;;;;26.61;44.21;100393.88;1758517;81;21089;-83
2022/07/11 00:33:50;;;;;;;3.65;1.80;;;;;;;26.62;44.21;100395.49;1758630;80;21038;-83
2022/07/11 00:36:16;;;;;;;3.02;1.95;;;;;;;26.63;44.22;100395.72;1758628;81;21636;-82
2022/07/11 00:38:43;;;;;;;2.15;1.77;;;;;;;26.62;44.23;100395.49;1758450;80;20962;-83
2022/07/11 00:41:10;;;;;;;3.25;1.90;;;;;;;26.61;44.22;100393.28;1758866;80;21090;-83
2022/07/11 00:43:38;;;;;;;2.33;2.00;;;;;;;26.61;44.22;100395.27;1758934;80;21038;-83
2022/07/11 00:46:05;;;;;;;2.35;1.92;;;;;;;26.60;44.22;100397.86;1758747;80;21077;-84
2022/07/11 00:48:32;;;;;;;2.50;1.82;;;;;;;26.61;44.21;100398.87;1758901;80;21061;-84
2022/07/11 00:50:58;;;;;;;2.37;1.60;;;;;;;26.59;44.23;100399.84;1758845;80;21051;-83
2022/07/11 00:53:25;;;;;;;4.00;2.02;;;;;;;26.60;44.24;100399.25;1758618;80;21003;-83
2022/07/11 00:55:54;;;;;;;2.35;1.90;;;;;;;26.59;44.22;100406.81;1729200;81;20995;-83
2022/07/11 00:58:21;;;;;;;3.35;1.65;;;;;;;26.59;44.25;100405.42;1729238;81;21090;-83
2022/07/11 01:00:47;;;;;;;2.37;1.62;;;;;;;26.58;44.24;100406.59;1758696;80;21220;-83
2022/07/11 01:03:14;;;;;;;2.08;1.70;;;;;;;26.58;44.24;100396.02;1758927;81;21050;-83
2022/07/11 01:05:40;;;;;;;2.27;1.70;;;;;;;26.59;44.23;100397.63;1758947;80;21105;-83
2022/07/11 01:08:07;;;;;;;3.35;1.85;;;;;;;26.58;44.24;100399.61;1758572;80;21523;-83
2022/07/11 01:10:33;;;;;;;2.65;1.62;;;;;;;26.58;44.23;100402.98;1758789;80;21014;-83
2022/07/11 01:13:00;;;;;;;2.50;1.67;;;;;;;26.57;44.23;100404.16;1758427;80;21068;-83
2022/07/11 01:15:26;;;;;;;2.30;1.90;;;;;;;26.57;44.23;100401.36;1758712;80;21022;-83
2022/07/11 01:17:53;;;;;;;2.12;1.60;;;;;;;26.57;44.23;100408.34;1758904;80;21433;-83
2022/07/11 01:20:25;;;;;;;2.35;1.57;;;;;;;26.55;44.25;100405.94;1758872;81;21003;-83
2022/07/11 01:22:56;;;;;;;2.30;1.80;;;;;;;26.56;44.23;100409.54;1758522;81;21034;-84
2022/07/11 01:25:32;;;;;;;2.35;1.70;;;;;;;26.56;44.20;100410.94;1758767;80;21524;-84
2022/07/11 01:27:59;;;;;;;2.55;1.85;;;;;;;26.55;44.20;100403.14;1758414;80;20983;-84
2022/07/11 01:30:26;;;;;;;1.80;1.50;;;;;;;26.54;44.19;100405.71;1758773;80;21003;-84
2022/07/11 01:32:53;;;;;;;2.67;1.70;;;;;;;26.55;44.20;100403.73;1758683;81;21050;-84
2022/07/11 01:35:20;;;;;;;2.47;1.90;;;;;;;26.54;44.17;100400.13;1754582;81;21017;-84
2022/07/11 01:37:47;;;;;;;2.80;1.70;;;;;;;26.54;44.11;100404.90;1754203;81;21154;-83
2022/07/11 01:40:13;;;;;;;2.02;1.67;;;;;;;26.53;44.13;100406.87;1754213;81;20998;-84
2022/07/11 01:42:40;;;;;;;1.92;1.72;;;;;;;26.54;44.11;100414.66;1762100;80;21022;-83
2022/07/11 01:45:08;;;;;;;2.35;1.72;;;;;;;26.53;44.12;100422.22;1754247;81;21586;-84
2022/07/11 01:47:35;;;;;;;2.02;1.45;;;;;;;26.54;44.13;100418.84;1754225;80;21030;-82
2022/07/11 01:50:01;;;;;;;2.45;1.60;;;;;;;26.54;44.14;100416.06;1753948;81;21046;-83
2022/07/11 01:52:28;;;;;;;2.20;1.50;;;;;;;26.53;44.15;100412.45;1754213;80;21551;-84
2022/07/11 01:54:54;;;;;;;2.25;1.95;;;;;;;26.53;44.15;100415.83;1754382;80;21033;-84
2022/07/11 01:57:21;;;;;;;2.40;1.65;;;;;;;26.53;44.13;100412.45;1753931;81;21061;-83
2022/07/11 01:59:47;;;;;;;2.70;1.95;;;;;;;26.53;44.10;100420.02;1754241;81;21072;-83
2022/07/11 02:02:14;;;;;;;2.10;1.70;;;;;;;26.52;44.02;100422.61;1754279;81;21095;-82
2022/07/11 02:04:40;;;;;;;2.02;1.50;;;;;;;26.53;43.94;100414.44;1753829;80;21013;-82
2022/07/11 02:07:07;;;;;;;2.27;1.87;;;;;;;26.53;43.75;100422.22;1754231;80;21587;-84
2022/07/11 02:09:34;;;;;;;2.87;1.95;;;;;;;26.54;43.61;100420.24;1754261;80;21104;-81
2022/07/11 02:12:00;;;;;;;2.85;1.80;;;;;;;26.53;43.51;100422.80;1754102;81;21066;-83
2022/07/11 02:14:27;;;;;;;2.05;1.67;;;;;;;26.53;43.41;100425.59;1754340;81;21209;-83
2022/07/11 02:16:53;;;;;;;1.90;1.52;;;;;;;26.52;43.30;100423.39;1737288;81;21038;-84
2022/07/11 02:19:20;;;;;;;3.37;1.52;;;;;;;26.52;43.24;100425.40;1754175;81;21038;-83
2022/07/11 02:21:47;;;;;;;4.87;1.65;;;;;;;26.52;43.10;100424.00;1754325;81;21041;-83
2022/07/11 02:24:13;;;;;;;2.00;1.50;;;;;;;26.53;43.06;100429.78;1754270;80;21096;-84
2022/07/11 02:26:39;;;;;;;2.42;1.70;;;;;;;26.51;43.01;100427.37;1754136;81;21606;-84
2022/07/11 02:29:06;;;;;;;2.42;1.80;;;;;;;26.51;42.95;100431.56;1754326;81;21057;-84
2022/07/11 02:31:32;;;;;;;2.17;1.62;;;;;;;26.52;42.99;100428.19;1754259;81;21022;-84
2022/07/11 02:33:59;;;;;;;2.87;1.72;;;;;;;26.52;43.07;100432.38;1754728;80;21129;-83
2022/07/11 02:36:25;;;;;;;3.40;1.60;;;;;;;26.51;43.13;100436.33;1758797;80;21502;-84
2022/07/11 02:38:52;;;;;;;2.50;1.52;;;;;;;26.51;43.21;100432.95;1758994;80;20986;-84
2022/07/11 02:41:19;;;;;;;2.83;1.62;;;;;;;26.51;43.23;100442.72;1758599;80;21062;-84
2022/07/11 02:43:46;;;;;;;2.00;1.60;;;;;;;26.50;43.27;100448.08;1758935;80;21061;-83
2022/07/11 02:46:12;;;;;;;2.15;1.70;;;;;;;26.51;43.29;100448.88;1758873;80;21497;-83
2022/07/11 02:48:45;;;;;;;2.33;1.45;;;;;;;26.50;43.33;100450.05;1758471;80;21017;-82
2022/07/11 02:51:11;;;;;;;2.92;1.62;;;;;;;26.50;43.40;100450.86;1759050;80;21042;-84
2022/07/11 02:53:38;;;;;;;4.40;1.72;;;;;;;26.49;43.45;100452.03;1758920;81;21042;-84
2022/07/11 02:56:06;;;;;;;3.58;1.65;;;;;;;26.50;43.51;100459.23;1758767;80;21033;-84
2022/07/11 02:58:32;;;;;;;3.45;1.80;;;;;;;26.50;43.55;100469.00;1759027;81;20887;-83
2022/07/11 03:00:59;;;;;;;2.27;1.57;;;;;;;26.49;43.57;100470.16;1758747;81;21077;-84
2022/07/11 03:03:25;;;;;;;1.77;1.50;;;;;;;26.49;43.60;100477.14;1758739;80;21119;-84
2022/07/11 03:05:52;;;;;;;2.47;1.50;;;;;;;26.49;43.58;100475.74;1759066;80;21046;-84
2022/07/11 03:08:18;;;;;;;2.55;1.92;;;;;;;26.50;43.60;100487.72;1758692;80;21004;-85
2022/07/11 03:10:45;;;;;;;2.70;1.60;;;;;;;26.49;43.60;100485.51;1758638;80;21030;-84
2022/07/11 03:13:12;;;;;;;2.47;1.60;;;;;;;26.50;43.62;100496.09;1758711;80;21092;-84
2022/07/11 03:15:38;;;;;;;2.62;1.92;;;;;;;26.50;43.65;100500.27;1758855;80;21026;-84
2022/07/11 03:18:05;;;;;;;2.20;1.47;;;;;;;26.48;43.66;100499.23;1758519;80;21042;-84
2022/07/11 03:20:31;;;;;;;2.58;1.80;;;;;;;26.48;43.70;100497.05;1758848;80;21007;-84
2022/07/11 03:22:57;;;;;;;3.00;1.67;;;;;;;26.48;43.72;100496.44;1758801;80;20995;-82
2022/07/11 03:25:24;;;;;;;2.60;1.60;;;;;;;26.47;43.59;100494.84;1758480;80;21552;-84
2022/07/11 03:27:50;;;;;;;2.35;1.55;;;;;;;26.47;43.44;100497.63;1758967;80;21107;-84
2022/07/11 03:30:23;;;;;;;1.85;1.40;;;;;;;26.47;43.35;100501.81;1758685;81;21046;-84
2022/07/11 03:32:50;;;;;;;2.00;1.62;;;;;;;26.47;43.27;100509.38;1758619;80;21022;-84
2022/07/11 03:38:01;;;;;;;2.30;1.55;;;;;;;26.47;43.39;100521.34;1722680;83;21044;-84
2022/07/11 03:40:28;;;;;;;2.15;1.70;;;;;;;26.47;43.47;100522.74;1751335;80;21275;-84
2022/07/11 03:42:54;;;;;;;2.65;1.57;;;;;;;26.48;43.53;100524.95;1751357;81;21035;-84
2022/07/11 03:45:27;;;;;;;2.17;1.72;;;;;;;26.46;43.56;100518.91;1751159;82;21082;-83
2022/07/11 03:47:53;;;;;;;1.70;1.55;;;;;;;26.46;43.60;100520.30;1751388;81;21090;-82
2022/07/11 03:50:20;;;;;;;2.05;1.50;;;;;;;26.46;43.61;100521.12;1751380;80;21035;-84
2022/07/11 03:52:46;;;;;;;1.72;1.42;;;;;;;26.47;43.65;100520.53;1751131;80;21104;-83
2022/07/11 03:55:13;;;;;;;2.15;1.77;;;;;;;26.47;43.67;100524.14;1751375;81;21514;-83
2022/07/11 03:57:39;;;;;;;1.95;1.65;;;;;;;26.47;43.67;100526.92;1751504;80;21133;-83
2022/07/11 04:00:10;;;;;;;2.25;1.60;;;;;;;26.47;43.67;100526.92;1751387;80;21019;-83
2022/07/11 04:02:36;;;;;;;;;;;;;;;26.46;43.65;100523.91;1754124;81;21537;-84
2022/07/11 04:05:03;;;;;;;2.30;1.52;;;;;;;26.45;43.67;100525.07;1751523;80;21907;-84
2022/07/11 04:07:29;;;;;;;2.22;1.60;;;;;;;26.46;43.65;100531.47;1751071;80;21329;-83
2022/07/11 04:09:56;;;;;;;3.10;1.72;;;;;;;26.44;43.61;100522.67;1751096;80;21050;-83
2022/07/11 04:12:22;;;;;;;3.27;1.65;;;;;;;26.44;43.60;100522.67;1751305;80;21537;-84
2022/07/11 04:14:49;;;;;;;2.02;1.45;;;;;;;26.45;43.63;100525.66;1751240;80;21039;-83
2022/07/11 04:17:21;;;;;;;3.20;1.75;;;;;;;26.45;43.65;100522.87;1751232;81;21779;-83
2022/07/11 04:19:48;;;;;;;2.10;1.50;;;;;;;26.44;43.60;100520.66;1750788;81;21070;-84
2022/07/11 04:22:14;;;;;;;1.98;1.77;;;;;;;26.45;43.49;100524.27;1750612;80;21117;-83
2022/07/11 04:24:40;;;;;;;2.65;1.70;;;;;;;26.45;43.35;100520.89;1750735;80;21477;-83
2022/07/11 04:27:07;;;;;;;1.72;1.45;;;;;;;26.46;43.28;100521.12;1751097;80;21133;-84
2022/07/11 04:29:34;;;;;;;2.30;1.52;;;;;;;26.46;43.25;100521.12;1750669;82;21154;-83
2022/07/11 04:32:00;;;;;;;3.22;1.80;;;;;;;26.45;43.16;100520.08;1750728;80;20971;-84
2022/07/11 04:34:26;;;;;;;2.10;1.87;;;;;;;26.45;43.08;100520.08;1750610;80;21046;-83
2022/07/11 04:36:53;;;;;;;2.33;1.90;;;;;;;26.46;43.08;100526.70;1727284;81;21452;-83
2022/07/11 04:39:19;;;;;;;2.52;1.80;;;;;;;26.46;43.01;100523.91;1748347;80;21034;-84
2022/07/11 04:41:46;;;;;;;2.33;1.80;;;;;;;26.47;43.00;100528.91;1696868;81;21176;-84
2022/07/11 04:44:12;;;;;;;4.65;2.83;;;;;;;26.46;43.13;100524.49;1727007;83;21061;-84
2022/07/11 04:46:39;;;;;;;4.58;3.30;;;;;;;26.39;43.32;100533.52;1727077;81;21016;-83
2022/07/11 04:49:05;;;;;;;5.75;4.00;;;;;;;26.32;43.52;100529.16;1726853;82;21013;-84
2022/07/11 04:51:32;;;;;;;6.55;4.03;;;;;;;26.23;43.61;100539.11;1726855;82;21057;-83
2022/07/11 04:53:58;;;;;;;6.75;4.17;;;;;;;25.97;43.81;100538.83;1726860;83;21128;-83
2022/07/11 04:56:25;;;;;;;6.78;3.77;;;;;;;25.74;44.10;100540.64;1747654;80;21606;-83
2022/07/11 04:58:51;;;;;;;4.75;3.70;;;;;;;25.61;44.38;100547.45;1727004;81;21061;-84
2022/07/11 05:01:17;;;;;;;4.65;3.50;;;;;;;25.53;44.55;100551.20;1727314;82;21864;-84
2022/07/11 05:03:45;;;;;;;5.70;3.45;;;;;;;25.48;44.70;100551.69;1726936;83;21060;-83
2022/07/11 05:06:11;;;;;;;8.78;3.72;;;;;;;25.50;44.77;100550.52;1747653;80;21759;-83
2022/07/11 05:08:44;;;;;;;5.20;3.90;;;;;;;25.49;44.84;100549.71;1696667;83;21385;-84
2022/07/11 05:11:10;;;;;;;10.00;3.92;;;;;;;25.47;44.94;100551.45;1758565;80;21069;-84
2022/07/11 05:13:37;;;;;;;7.87;4.08;;;;;;;25.41;45.05;100554.86;1758279;80;21694;-84
2022/07/11 05:16:04;;;;;;;6.45;3.83;;;;;;;25.37;45.17;100550.59;1758705;80;21066;-83
2022/07/11 05:18:31;;;;;;;5.62;3.80;;;;;;;25.35;45.24;100552.91;1758658;80;21152;-84
2022/07/11 05:20:58;;;;;;;4.30;3.47;;;;;;;25.34;45.26;100556.86;1758054;80;21094;-83
2022/07/11 05:23:24;;;;;;;4.72;3.50;;;;;;;25.28;45.26;100562.47;1758495;80;21602;-83
2022/07/11 05:25:50;;;;;;;4.05;3.40;;;;;;;25.19;45.37;100558.22;1758571;80;20966;-84
2022/07/11 05:28:17;;;;;;;7.40;3.67;;;;;;;25.14;45.49;100559.86;1758284;80;21065;-83
2022/07/11 05:30:43;;;;;;;7.17;3.12;;;;;;;25.10;45.59;100556.16;1758475;80;21011;-83
2022/07/11 05:33:10;;;;;;;7.33;3.20;;;;;;;25.04;45.63;100553.42;1759750;80;21581;-82
2022/07/11 05:35:36;;;;;;;4.55;3.00;;;;;;;24.98;45.70;100561.20;1737992;80;21485;-84
2022/07/11 05:38:03;;;;;;;7.78;3.10;;;;;;;24.95;45.76;100561.91;1758813;80;21070;-82
2022/07/11 05:40:29;;;;;;;7.15;2.83;;;;;;;24.95;45.76;100561.91;1758716;80;21073;-83
2022/07/11 05:42:56;;;;;;;6.75;2.77;;;;;;;24.93;45.74;100567.82;1758392;80;21164;-83
2022/07/11 05:45:22;;;;;;;7.08;2.50;;;;;;;24.90;45.73;100569.11;1758650;80;21093;-80
2022/07/11 05:47:48;;;;;;;3.77;2.40;;;;;;;24.89;45.70;100573.05;1758818;80;21051;-84
2022/07/11 05:50:15;;;;;;;3.58;2.40;;;;;;;24.92;45.69;100575.12;1754357;80;21046;-83
2022/07/11 05:52:41;;;;;;;4.83;3.02;;;;;;;24.97;45.63;100570.70;1758730;80;21493;-83
2022/07/11 05:55:08;;;;;;;7.92;2.72;;;;;;;25.01;45.54;100570.23;1758648;80;21873;-84
2022/07/11 05:57:37;;;;;;;3.60;2.25;;;;;;;25.05;45.40;100578.67;1733230;81;21050;-84
2022/07/11 06:00:04;;;;;;;7.90;2.45;;;;;;;25.08;45.27;100580.77;1758004;80;21388;-84
2022/07/11 06:02:30;;;;;;;8.60;2.40;;;;;;;25.06;45.09;100586.68;1756830;80;21046;-84
2022/07/11 06:04:57;;;;;;;5.53;2.25;;;;;;;25.03;45.11;100592.16;1751882;80;21102;-83
2022/07/11 06:10:12;;;;;;;5.08;2.22;;;;;;;24.97;44.84;100592.97;1728003;83;21014;-83
2022/07/11 06:12:38;;;;;;;3.67;2.27;;;;;;;25.00;44.65;100593.07;1728553;81;21458;-84
2022/07/11 06:15:05;;;;;;;2.92;1.87;;;;;;;24.98;44.57;100589.84;1699418;83;21034;-83
2022/07/11 06:17:32;;;;;;;4.85;2.10;;;;;;;25.01;44.44;100600.84;1728182;81;21593;-84
2022/07/11 06:19:59;;;;;;;3.35;1.77;;;;;;;24.99;44.24;100594.83;1728575;81;22028;-84
2022/07/11 06:22:25;;;;;;;6.22;2.20;;;;;;;24.95;44.17;100603.66;1728231;81;21234;-83
2022/07/11 06:24:52;;;;;;;2.35;1.72;;;;;;;24.95;44.16;100598.09;1757678;80;21109;-84
2022/07/11 06:27:18;;;;;;;2.45;1.90;;;;;;;24.95;44.01;100598.09;1747725;80;21621;-83
2022/07/11 06:29:45;;;;;;;2.72;1.70;;;;;;;24.93;43.83;100598.44;1727037;81;21050;-83
2022/07/11 06:32:12;;;;;;;3.37;1.60;;;;;;;24.91;43.73;100602.72;1735007;80;21110;-83
2022/07/11 06:34:40;;;;;;;3.45;1.85;;;;;;;24.91;43.53;100602.72;1758834;81;21453;-83
2022/07/11 06:37:07;;;;;;;2.75;1.80;;;;;;;24.88;43.54;100599.25;1758049;80;21067;-84
2022/07/11 06:39:34;;;;;;;3.87;1.67;;;;;;;24.88;43.47;100607.02;1758405;80;21498;-83
2022/07/11 06:42:00;;;;;;;5.00;1.75;;;;;;;24.88;43.45;100602.03;1758791;81;21043;-84
2022/07/11 06:44:27;;;;;;;2.72;1.80;;;;;;;24.87;43.41;100598.44;1758713;80;21425;-84
2022/07/11 06:46:53;;;;;;;4.28;1.65;;;;;;;24.86;43.29;100608.55;1758463;80;20979;-83
2022/07/11 06:49:20;;;;;;;2.47;1.80;;;;;;;24.86;43.27;100605.19;1758753;81;21101;-83
2022/07/11 06:51:46;;;;;;;3.22;1.98;;;;;;;24.86;43.20;100606.58;1758770;81;20967;-83
2022/07/11 06:54:12;;;;;;;3.33;2.17;;;;;;;24.88;43.14;100612.59;1758497;80;21018;-83
2022/07/11 06:56:39;;;;;;;3.75;2.17;;;;;;;24.88;43.17;100602.84;1758882;80;22128;-83
2022/07/11 06:59:05;;;;;;;3.40;2.10;;;;;;;24.89;43.12;100614.22;1758708;80;21289;-84
2022/07/11 07:01:31;;;;;;;4.90;2.20;;;;;;;24.89;43.19;100617.00;1758582;80;21654;-82
2022/07/11 07:03:58;;;;;;;5.10;2.37;;;;;;;24.91;43.30;100617.44;1758807;80;21026;-82
2022/07/11 07:06:24;;;;;;;5.40;2.30;;;;;;;24.93;43.41;100617.10;1758898;80;21172;-82
2022/07/11 07:08:51;;;;;;;5.85;2.40;;;;;;;24.95;43.60;100619.75;1758605;80;21179;-81
2022/07/11 07:11:19;;;;;;;9.93;2.90;;;;;;;24.98;43.62;100619.65;1758773;80;21567;-82
2022/07/11 07:13:50;;;;;;;10.32;3.00;;;;;;;24.98;43.67;100618.26;1758599;80;21038;-83
2022/07/11 07:16:16;;;;;;;11.43;3.00;;;;;;;25.01;43.70;100622.53;1758501;80;21053;-83
2022/07/11 07:18:45;;;;;;;6.17;2.67;;;;;;;25.03;43.66;100630.54;1758793;80;21071;-84
2022/07/11 07:21:11;;;;;;;6.20;2.45;;;;;;;25.01;43.65;100626.70;1758902;79;21092;-84
2022/07/11 07:23:38;;;;;;;6.50;2.90;;;;;;;25.02;43.66;100628.91;1758648;81;21007;-84
2022/07/11 07:26:05;;;;;;;4.45;2.47;;;;;;;25.00;43.60;100623.69;1758879;80;21111;-83
2022/07/11 07:28:38;;;;;;;2.90;2.50;;;;;;;24.96;43.55;100631.70;1758877;80;20983;-82
2022/07/11 07:31:06;;;;;;;11.25;3.45;;;;;;;24.90;43.56;100634.52;1758543;81;21113;-83
2022/07/11 07:33:32;;;;;;;15.43;3.10;;;;;;;24.88;43.60;100634.85;1784518;78;21110;-82
2022/07/11 07:35:59;;;;;;;17.00;3.62;;;;;;;24.84;43.64;100630.30;1758534;81;21035;-82
2022/07/11 07:38:26;;;;;;;13.10;3.17;;;;;;;24.87;44.08;100640.76;1758663;80;21042;-82
2022/07/11 07:40:52;;;;;;;9.03;3.42;;;;;;;24.84;44.18;100636.69;1758490;80;21090;-82
2022/07/11 07:43:19;;;;;;;11.80;2.87;;;;;;;24.83;44.21;100641.20;1758862;80;21034;-83
2022/07/11 07:45:45;;;;;;;7.12;2.62;;;;;;;24.80;44.31;100644.69;1758457;80;21100;-83
2022/07/11 07:48:12;;;;;;;8.33;3.22;;;;;;;24.72;44.35;100647.83;1757851;80;21014;-83
2022/07/11 07:50:38;;;;;;;10.48;3.00;;;;;;;24.66;44.49;100645.62;1758407;80;21064;-82
2022/07/11 07:53:05;;;;;;;12.10;2.83;;;;;;;24.65;44.92;100644.84;1758246;80;21042;-83
2022/07/11 07:55:31;;;;;;;6.47;3.00;;;;;;;24.69;44.81;100648.55;1758887;80;21517;-83
2022/07/11 07:57:58;;;;;;;4.10;2.80;;;;;;;24.73;44.81;100648.07;1758720;80;21260;-84
2022/07/11 08:03:09;;;;;;;7.08;2.60;;;;;;;24.75;44.78;100638.78;1753778;80;21519;-83
2022/07/11 08:05:36;;;;;;;3.15;2.40;;;;;;;24.77;44.74;100638.44;1684002;83;21297;-83
2022/07/11 08:08:03;;;;;;;7.75;2.90;;;;;;;24.76;44.54;100631.25;1700169;82;21097;-83
2022/07/11 08:11:30;;;;;;;5.85;2.70;;;;;;;24.76;44.44;100625.69;1708663;82;21976;-83
2022/07/11 08:14:08;;;;;;;7.00;2.60;;;;;;;24.78;44.42;100638.07;1713085;82;21125;-82
2022/07/11 08:16:34;;;;;;;8.48;2.62;;;;;;;24.84;44.41;100624.73;1709094;81;21104;-81
2022/07/11 08:19:09;;;;;;;3.77;2.22;;;;;;;24.87;44.27;100622.67;1726045;81;21084;-80
2022/07/11 08:21:32;;;;;;;4.58;2.40;;;;;;;24.89;44.05;100628.13;1723077;81;21028;-82
2022/07/11 08:23:58;;;;;;;3.72;2.17;;;;;;;24.89;43.90;100628.70;1726437;81;21115;-80
2022/07/11 08:26:25;;;;;;;4.87;2.20;;;;;;;24.91;43.88;100625.80;1722688;81;21077;-82
2022/07/11 08:28:52;;;;;;;3.72;2.30;;;;;;;24.95;43.73;100623.92;1719085;81;21083;-83
2022/07/11 08:31:18;;;;;;;9.20;2.30;;;;;;;24.99;43.58;100620.67;1710901;81;21091;-83
2022/07/11 08:33:45;;;;;;;3.15;2.17;;;;;;;25.04;43.53;100624.39;1686468;82;21059;-83
2022/07/11 08:36:18;;;;;;;4.05;2.10;;;;;;;25.07;43.34;100620.33;1703546;82;22228;-82
2022/07/11 08:39:52;;;;;;;2.20;2.00;;;;;;;25.09;43.10;100622.73;1711773;82;21065;-83
2022/07/11 08:42:20;;;;;;;2.35;1.70;;;;;;;25.08;42.92;100621.14;1691741;82;21661;-83
2022/07/11 08:44:46;;;;;;;3.83;1.90;;;;;;;25.06;42.60;100623.45;1692332;83;21047;-83
2022/07/11 08:47:13;;;;;;;4.12;2.27;;;;;;;25.04;42.50;100622.40;1679176;83;21046;-83
2022/07/11 08:53:20;;;;;;;3.87;1.90;;;;;;;25.08;42.38;100616.35;1693307;83;21735;-83
2022/07/11 08:55:47;;;;;;;3.12;2.02;;;;;;;25.08;42.38;100616.35;1692304;83;21053;-84
2022/07/11 08:58:14;;;;;;;3.67;1.92;;;;;;;25.11;42.03;100621.81;1693851;82;21681;-83
2022/07/11 09:00:42;;;;;;;3.50;1.90;;;;;;;25.13;41.85;100612.52;1688387;83;21028;-83
2022/07/11 09:03:17;;;;;;;2.47;1.98;;;;;;;25.15;41.77;100611.59;1693418;83;21117;-83
2022/07/11 09:05:44;;;;;;;4.83;1.90;;;;;;;25.16;41.72;100609.86;1708844;82;21696;-83
2022/07/11 09:08:11;;;;;;;4.08;2.35;;;;;;;25.17;41.80;100601.71;1783944;80;21000;-84
2022/07/11 09:10:39;;;;;;;2.37;1.82;;;;;;;25.21;41.75;100602.63;1754513;80;21033;-83
2022/07/11 09:13:08;;;;;;;6.42;2.08;;;;;;;25.22;41.66;100597.29;1736487;80;21125;-84
2022/07/11 09:15:41;;;;;;;2.47;2.20;;;;;;;25.23;41.67;100597.53;1743091;80;21585;-82
2022/07/11 09:18:32;;;;;;;2.77;1.90;;;;;;;25.26;41.63;100598.20;1737621;80;21112;-83
2022/07/11 09:26:47;;;;;;;4.60;2.50;;;;;;;25.33;41.36;100589.26;1743240;82;21057;-83
2022/07/11 09:29:18;;;;;;;3.22;2.17;;;;;;;25.33;41.18;100590.65;1749505;80;21513;-82
2022/07/11 09:31:45;;;;;;;5.87;2.60;;;;;;;25.36;41.20;100593.53;1729959;81;21089;-82
2022/07/11 09:34:16;;;;;;;4.20;2.08;;;;;;;25.36;41.14;100587.96;1746436;80;21041;-82
2022/07/11 09:36:56;;;;;;;4.47;2.30;;;;;;;25.39;41.13;100587.23;1706566;83;22227;-83
2022/07/11 09:39:28;;;;;;;8.60;2.33;;;;;;;25.42;41.16;100585.13;1686427;84;21091;-83
2022/07/11 09:41:55;;;;;;;4.95;2.27;;;;;;;25.42;41.06;100584.31;1708474;82;21084;-82
2022/07/11 09:44:33;;;;;;;5.53;2.27;;;;;;;25.40;40.99;100583.30;1725139;81;21023;-80
2022/07/11 09:46:56;;;;;;;4.65;2.08;;;;;;;25.39;40.94;100591.41;1731757;81;21027;-83
2022/07/11 09:49:41;;;;;;;3.22;2.33;;;;;;;25.40;40.86;100588.05;1715975;81;20909;-82
2022/07/11 09:52:18;;;;;;;5.05;2.25;;;;;;;25.42;40.85;100587.09;1684534;83;21661;-82
2022/07/11 09:54:59;;;;;;;3.50;2.50;;;;;;;25.42;40.79;100580.95;1694179;81;21580;-81
2022/07/11 09:57:30;;;;;;;2.72;2.20;;;;;;;25.43;40.71;100581.19;1672840;83;21052;-83
2022/07/11 10:00:25;;;;;;;3.15;2.10;;;;;;;25.44;40.78;100589.77;1692891;83;21088;-81
2022/07/11 10:02:55;;;;;;;9.53;2.00;;;;;;;25.45;40.77;100583.05;1717290;82;21050;-82
2022/07/11 10:05:22;;;;;;;4.58;2.15;;;;;;;25.48;40.66;100585.11;1726644;81;21067;-82
2022/07/11 10:07:48;;;;;;;6.87;2.40;;;;;;;25.51;40.63;100581.37;1682961;83;21129;-83
2022/07/11 10:10:15;;;;;;;2.50;2.10;;;;;;;25.53;40.40;100589.64;1726364;81;21055;-83
2022/07/11 10:12:42;;;;;;;2.62;1.80;;;;;;;25.52;40.25;100578.81;1744482;80;21039;-83
2022/07/11 10:15:10;;;;;;;2.47;1.80;;;;;;;25.52;40.20;100580.21;1730849;81;21083;-83
2022/07/11 10:17:54;;;;;;;3.55;2.27;;;;;;;25.56;40.12;100585.33;1714810;81;21091;-82
2022/07/11 10:20:50;;;;;;;3.90;1.95;;;;;;;25.57;39.92;100578.59;1704262;81;21831;-82
2022/07/11 10:23:48;;;;;;;2.87;1.98;;;;;;;25.59;39.85;100581.23;1679878;83;21083;-83
2022/07/11 10:26:35;;;;;;;6.87;1.85;;;;;;;25.61;39.57;100590.64;1697638;83;21629;-83
2022/07/11 10:29:11;;;;;;;3.55;1.77;;;;;;;25.60;39.31;100586.23;1705850;83;21047;-81
2022/07/11 10:31:37;;;;;;;2.90;1.70;;;;;;;25.57;39.09;100583.59;1663159;83;21067;-80
2022/07/11 10:34:05;;;;;;;2.50;2.00;;;;;;;25.54;39.22;100592.66;1682234;83;21847;-82
2022/07/11 10:36:34;;;;;;;2.92;2.05;;;;;;;25.54;39.37;100591.27;1683528;83;21079;-82
2022/07/11 10:39:26;;;;;;;3.22;2.20;;;;;;;25.56;39.52;100584.75;1694081;83;21160;-82
2022/07/11 10:41:58;;;;;;;3.05;1.82;;;;;;;25.61;39.59;100585.07;1692151;83;21063;-82
2022/07/11 10:44:27;;;;;;;3.35;2.08;;;;;;;25.64;39.56;100580.17;1677177;82;21355;-82
2022/07/11 10:46:54;;;;;;;2.92;1.95;;;;;;;25.67;39.51;100585.86;1690889;82;21741;-81
2022/07/11 10:49:31;;;;;;;4.20;2.00;;;;;;;25.71;39.64;100574.80;1684005;82;21083;-80
2022/07/11 10:52:04;;;;;;;2.35;1.95;;;;;;;25.73;39.64;100583.02;1688800;82;21454;-81
2022/07/11 10:54:55;;;;;;;4.80;2.10;;;;;;;25.77;39.76;100584.50;1689023;83;21115;-80
2022/07/11 11:00:36;;;;;;;2.80;1.85;;;;;;;25.82;39.75;100574.48;1624847;85;22054;-83
2022/07/11 11:03:10;;;;;;;4.62;1.98;;;;;;;25.85;39.64;100568.19;1647469;85;21588;-83
2022/07/11 11:05:52;;;;;;;3.85;2.10;;;;;;;25.85;39.60;100573.19;1626955;85;21116;-81
2022/07/11 11:08:43;;;;;;;2.70;1.98;;;;;;;25.86;39.66;100570.62;1652590;84;21080;-83
2022/07/11 11:11:35;;;;;;;4.13;2.27;;;;;;;25.87;39.72;100571.44;1650804;84;21052;-83
2022/07/11 11:14:29;;;;;;;3.45;1.98;;;;;;;25.88;39.76;100564.70;1645599;85;21148;-83
2022/07/11 11:16:53;;;;;;;4.58;2.50;;;;;;;25.88;39.72;100561.34;1656139;85;21041;-82
2022/07/11 11:19:53;;;;;;;3.60;2.17;;;;;;;25.90;39.75;100563.16;1646246;85;21645;-82
2022/07/11 11:22:22;;;;;;;4.40;2.10;;;;;;;25.90;39.68;100562.35;1640119;85;21138;-82
2022/07/11 11:24:52;;;;;;;3.15;2.33;;;;;;;25.92;39.68;100567.00;1685478;83;21665;-82
2022/07/11 11:27:26;;;;;;;4.67;2.33;;;;;;;25.91;39.65;100559.80;1686866;83;22678;-83
2022/07/11 11:29:54;;;;;;;2.17;1.70;;;;;;;25.91;39.67;100561.19;1693425;83;21680;-83
2022/07/11 11:32:24;;;;;;;3.15;1.77;;;;;;;25.91;39.59;100558.41;1688483;84;21085;-82
2022/07/11 11:34:51;;;;;;;3.17;1.85;;;;;;;25.89;39.53;100557.94;1678442;84;21167;-83
2022/07/11 11:37:17;;;;;;;2.40;1.70;;;;;;;25.87;39.54;100551.35;1717505;79;21356;-83
2022/07/11 11:39:44;;;;;;;3.55;1.70;;;;;;;25.88;39.41;100550.19;1776004;80;21320;-83
2022/07/11 11:42:15;;;;;;;2.10;1.67;;;;;;;25.89;39.20;100545.40;1745559;80;21069;-83
2022/07/11 11:44:56;;;;;;;;;;;;;;;25.87;39.16;100551.93;1766720;78;21064;-82
2022/07/11 11:47:22;;;;;;;2.72;1.40;;;;;;;25.88;39.17;100537.64;1724556;80;20202;-82
2022/07/11 11:49:49;;;;;;;3.45;1.90;;;;;;;25.88;39.20;100546.59;1748970;81;21057;-83
2022/07/11 11:52:21;;;;;;;2.33;1.65;;;;;;;25.87;39.21;100549.95;1741778;80;21924;-83
2022/07/11 11:54:52;;;;;;;2.25;1.20;;;;;;;25.88;39.06;100549.37;1734170;81;21095;-82